Αναφορές METAR Αεροδρομίων

 

LGTS - THESSALONIKI - GREECE
Ενημερώθηκε: 21/09/2018 10:20
Αίθριος
Αίθριος
 Ανεμος από varies
Ανεμος: varies 6 km/h
Θερμοκρασία: 22°C
Σημείο Δρόσου: 14°C
Υγρασία: 61%
Βαρόμετρο: 1018 hPa
Περίληψη: Αίθριος
Visibility: greater than 10 km
2018/09/21 07:20 LGTS 210720Z VRB03KT CAVOK 22/14 Q1018 NOSIG
LGLR - LARTISA - GREECE
Ενημερώθηκε: 20/09/2018 16:50
NOT Current
Αραιές Νεφώσεις
Αραιές Νεφώσεις
 Ανεμος από Α
Ανεμος: Α 17 km/h
Θερμοκρασία: 28°C
Σημείο Δρόσου: 10°C
Υγρασία: 32%
Βαρόμετρο: 1017 hPa
Clouds: Αραιές Νεφώσεις
Visibility: 10 km
Cloud details: Αραιές Νεφώσεις 914 m
2018/09/20 13:50 LGLR 201350Z 09009KT 9999 FEW030 28/10 Q1017 RMK FEW180 BLU
 
LGKZ - KOZANI - GREECE
Ενημερώθηκε: 21/09/2018 09:50
Αίθριος
Αίθριος
 Ανεμος από calm
Ανεμος: Απνοια
Θερμοκρασία: 19°C
Σημείο Δρόσου: 13°C
Υγρασία: 68%
Βαρόμετρο: 1021 hPa
Περίληψη: Αίθριος
Visibility: greater than 10 km
2018/09/21 06:50 LGKZ 210650Z 00000KT CAVOK 19/13 Q1021
LGKV - KAVALA - GREECE
Ενημερώθηκε: 21/09/2018 10:20
Αραιές Νεφώσεις
Αραιές Νεφώσεις
 Ανεμος από ΑΝΑ
Ανεμος: ΑΝΑ 7 km/h
Θερμοκρασία: 23°C
Σημείο Δρόσου: 15°C
Υγρασία: 61%
Βαρόμετρο: 1018 hPa
Clouds: Αραιές Νεφώσεις
Visibility: 10 km
Cloud details: Αραιές Νεφώσεις 914 m
2018/09/21 07:20 LGKV 210720Z 12004KT 9999 FEW030 23/15 Q1018
 
LGIO - IOANNINA - GREECE
Ενημερώθηκε: 21/09/2018 10:20
Αίθριος
Αίθριος
 Ανεμος από varies
Ανεμος: varies 0 km/h
Θερμοκρασία: 20°C
Σημείο Δρόσου: 15°C
Υγρασία: 73%
Βαρόμετρο: 1019 hPa
Περίληψη: Αίθριος
Visibility: greater than 10 km
2018/09/21 07:20 LGIO 210720Z /////KT CAVOK 20/15 Q1019
LGBL - BOLOS - GREECE
Ενημερώθηκε: 21/09/2018 10:20
Αραιές Νεφώσεις
Αραιές Νεφώσεις
 Ανεμος από Δ
Ανεμος: Δ 6 km/h
Θερμοκρασία: 25°C
Σημείο Δρόσου: 13°C
Υγρασία: 47%
Βαρόμετρο: 1018 hPa
Clouds: Αραιές Νεφώσεις
Visibility: 10 km
Cloud details: Αραιές Νεφώσεις 914 m
2018/09/21 07:20 LGBL 210720Z 28003KT 9999 FEW030 25/13 Q1018
 
LGMT - MITILINI - GREECE
Ενημερώθηκε: 21/09/2018 10:20
Αίθριος
Αίθριος
 Ανεμος από varies
Ανεμος: varies 6 km/h
Θερμοκρασία: 24°C
Σημείο Δρόσου: 18°C
Υγρασία: 69%
Βαρόμετρο: 1015 hPa
Περίληψη: Αίθριος
Visibility: greater than 10 km
2018/09/21 07:20 LGMT 210720Z VRB03KT CAVOK 24/18 Q1015
LGAV - ATHENS - GREECE
Ενημερώθηκε: 21/09/2018 10:20
Αραιές Νεφώσεις
Αραιές Νεφώσεις
 Ανεμος από Β
Ανεμος: Β 22 km/h
Θερμοκρασία: 24°C
Σημείο Δρόσου: 14°C
Υγρασία: 54%
Βαρόμετρο: 1017 hPa
Clouds: Αραιές Νεφώσεις
Visibility: 10 km
Cloud details: Αραιές Νεφώσεις 914 m
2018/09/21 07:20 LGAV 210720Z 01012KT 9999 FEW030 24/14 Q1017 NOSIG
 
LGRP - RODOS - GREECE
Ενημερώθηκε: 21/09/2018 10:20
Αίθριος
Αίθριος
 Ανεμος από Δ
Ανεμος: Δ 19 km/h
Θερμοκρασία: 27°C
Heat Index: 29°C
Σημείο Δρόσου: 20°C
Υγρασία: 66%
Βαρόμετρο: 1011 hPa
Περίληψη: Αίθριος
Visibility: greater than 10 km
2018/09/21 07:20 LGRP 210720Z 27010KT CAVOK 27/20 Q1011 NOSIG
LGIR - HRAKLIO/KRITI - GREECE
Ενημερώθηκε: 21/09/2018 10:20
Αραιές Νεφώσεις
Αραιές Νεφώσεις
 Ανεμος από ΔΒΔ
Ανεμος: ΔΒΔ 19 km/h
Θερμοκρασία: 23°C
Σημείο Δρόσου: 19°C
Υγρασία: 78%
Βαρόμετρο: 1014 hPa
Clouds: Αραιές Νεφώσεις
Visibility: 10 km
Cloud details: Αραιές Νεφώσεις 762 m
2018/09/21 07:20 LGIR 210720Z 29010KT 9999 FEW025 23/19 Q1014 NOSIG
 
LGMK - MIKONOS - GREECE
Ενημερώθηκε: 21/09/2018 10:20
Αραιές Νεφώσεις
Αραιές Νεφώσεις
 Ανεμος από Β
Ανεμος: Β 37 km/h
Θερμοκρασία: 23°C
Σημείο Δρόσου: 17°C
Υγρασία: 69%
Βαρόμετρο: 1015 hPa
Clouds: Αραιές Νεφώσεις
Visibility: 10 km
Cloud details: Αραιές Νεφώσεις 366 m
2018/09/21 07:20 LGMK 210720Z 35020KT 9999 FEW012 23/17 Q1015
LGKR - KERKIRA - GREECE
Ενημερώθηκε: 21/09/2018 10:20
Αίθριος
Αίθριος
 Ανεμος από calm
Ανεμος: Απνοια
Θερμοκρασία: 24°C
Σημείο Δρόσου: 19°C
Υγρασία: 74%
Βαρόμετρο: 1016 hPa
Περίληψη: Αίθριος
Visibility: greater than 10 km
2018/09/21 07:20 LGKR 210720Z 00000KT CAVOK 24/19 Q1016 NOSIG